createdAt,value
2024-03-15T00:00:47.760Z,57.85
2024-03-15T00:01:47.866Z,58.01
2024-03-15T00:02:47.773Z,57.69
2024-03-15T00:03:47.749Z,58.01
2024-03-15T00:04:47.743Z,59.46
2024-03-15T00:05:47.713Z,59.94
2024-03-15T00:06:47.755Z,58.33
2024-03-15T00:07:47.707Z,58.81
2024-03-15T00:08:47.677Z,57.20
2024-03-15T00:09:47.730Z,57.52
2024-03-15T00:10:47.785Z,58.01
2024-03-15T00:11:47.709Z,58.01
2024-03-15T00:12:47.823Z,57.36
2024-03-15T00:13:47.689Z,57.04
2024-03-15T00:14:47.663Z,56.88
2024-03-15T00:15:47.730Z,57.52
2024-03-15T00:16:47.670Z,57.69
2024-03-15T00:17:47.652Z,57.52
2024-03-15T00:18:47.703Z,58.65
2024-03-15T00:19:48.604Z,58.01
2024-03-15T00:20:47.636Z,58.17
2024-03-15T00:21:47.652Z,58.33
2024-03-15T00:22:47.629Z,58.81
2024-03-15T00:23:47.603Z,60.10
2024-03-15T00:24:47.680Z,59.62
2024-03-15T00:25:47.594Z,59.30
2024-03-15T00:26:47.583Z,58.49
2024-03-15T00:27:47.686Z,58.01
2024-03-15T00:28:47.536Z,58.01
2024-03-15T00:29:47.547Z,58.81
2024-03-15T00:30:47.651Z,59.30
2024-03-15T00:31:47.548Z,58.97
2024-03-15T00:32:47.568Z,59.46
2024-03-15T00:33:47.548Z,58.49
2024-03-15T00:34:47.524Z,58.33
2024-03-15T00:35:47.550Z,58.33
2024-03-15T00:36:47.554Z,58.65
2024-03-15T00:37:47.517Z,59.30
2024-03-15T00:38:47.503Z,58.97
2024-03-15T00:39:48.648Z,58.81
2024-03-15T00:40:47.520Z,58.97
2024-03-15T00:41:47.477Z,58.65
2024-03-15T00:42:47.588Z,59.14
2024-03-15T00:43:47.490Z,60.26
2024-03-15T00:44:47.457Z,58.65
2024-03-15T00:45:47.496Z,58.49
2024-03-15T00:46:47.463Z,58.81
2024-03-15T00:47:47.465Z,59.94
2024-03-15T00:48:47.462Z,59.46
2024-03-15T00:49:47.485Z,57.04
2024-03-15T00:50:47.430Z,58.49
2024-03-15T00:51:47.468Z,58.17
2024-03-15T00:52:47.415Z,59.62
2024-03-15T00:53:47.402Z,58.17
2024-03-15T00:54:47.481Z,58.33
2024-03-15T00:55:47.431Z,58.33
2024-03-15T00:56:47.476Z,57.52
2024-03-15T00:57:48.420Z,58.01
2024-03-15T00:58:47.378Z,57.85
2024-03-15T00:59:47.366Z,57.52
2024-03-15T01:00:47.423Z,57.52
2024-03-15T01:01:47.372Z,60.59
2024-03-15T01:02:47.357Z,58.33
2024-03-15T01:03:47.422Z,58.01
2024-03-15T01:04:47.365Z,58.01
2024-03-15T01:05:47.368Z,58.49
2024-03-15T01:06:47.413Z,58.49
2024-03-15T01:07:47.326Z,58.33
2024-03-15T01:08:47.307Z,58.17
2024-03-15T01:09:47.379Z,59.62
2024-03-15T01:10:47.404Z,58.49
2024-03-15T01:11:47.293Z,58.65
2024-03-15T01:12:47.370Z,58.01
2024-03-15T01:13:47.321Z,58.65
2024-03-15T01:14:47.306Z,58.33
2024-03-15T01:15:47.440Z,57.85
2024-03-15T01:16:47.310Z,58.01
2024-03-15T01:17:47.294Z,57.85
2024-03-15T01:18:47.383Z,57.85
2024-03-15T01:19:47.301Z,58.49
2024-03-15T01:20:47.295Z,58.17
2024-03-15T01:21:47.287Z,58.17
2024-03-15T01:22:47.205Z,60.10
2024-03-15T01:23:47.219Z,58.49
2024-03-15T01:24:47.296Z,57.69
2024-03-15T01:25:47.252Z,58.81
2024-03-15T01:26:47.189Z,58.01
2024-03-15T01:27:47.300Z,57.85
2024-03-15T01:28:47.193Z,58.17
2024-03-15T01:29:47.189Z,58.01
2024-03-15T01:30:47.352Z,60.26
2024-03-15T01:31:47.421Z,57.69
2024-03-15T01:32:47.210Z,58.49
2024-03-15T01:33:47.210Z,57.69
2024-03-15T01:34:47.130Z,57.36
2024-03-15T01:35:47.138Z,58.17
2024-03-15T01:36:47.242Z,58.01
2024-03-15T01:37:47.380Z,57.52
2024-03-15T01:38:47.164Z,58.01
2024-03-15T01:39:47.187Z,58.49
2024-03-15T01:40:47.244Z,59.46
2024-03-15T01:41:47.116Z,58.33
2024-03-15T01:42:47.213Z,58.49
2024-03-15T01:43:47.113Z,58.17
2024-03-15T01:44:47.076Z,58.33
2024-03-15T01:45:47.159Z,57.52
2024-03-15T01:46:47.093Z,57.04
2024-03-15T01:47:47.135Z,57.04
2024-03-15T01:48:47.124Z,56.88
2024-03-15T01:49:47.079Z,56.72
2024-03-15T01:50:47.044Z,56.40
2024-03-15T01:51:47.120Z,56.56
2024-03-15T01:52:47.063Z,59.14
2024-03-15T01:53:47.081Z,56.88
2024-03-15T01:54:47.095Z,56.40
2024-03-15T01:55:47.033Z,57.36
2024-03-15T01:56:47.053Z,57.04
2024-03-15T01:57:47.130Z,57.04
2024-03-15T01:58:48.008Z,56.56
2024-03-15T01:59:47.963Z,56.07
2024-03-15T02:00:47.072Z,56.07
2024-03-15T02:01:47.017Z,56.24
2024-03-15T02:02:47.024Z,56.88
2024-03-15T02:03:47.049Z,57.04
2024-03-15T02:04:46.989Z,56.72
2024-03-15T02:05:46.945Z,56.24
2024-03-15T02:06:47.008Z,56.88
2024-03-15T02:07:46.968Z,56.40
2024-03-15T02:08:46.952Z,56.40
2024-03-15T02:09:47.028Z,57.04
2024-03-15T02:10:47.047Z,57.36
2024-03-15T02:11:46.959Z,57.52
2024-03-15T02:12:47.064Z,57.04
2024-03-15T02:13:46.924Z,56.88
2024-03-15T02:14:46.901Z,57.04
2024-03-15T02:15:47.097Z,57.04
2024-03-15T02:16:46.924Z,57.20
2024-03-15T02:17:46.910Z,56.88
2024-03-15T02:18:46.936Z,56.72
2024-03-15T02:19:46.921Z,56.40
2024-03-15T02:20:46.875Z,57.04
2024-03-15T02:21:46.941Z,58.81
2024-03-15T02:22:46.865Z,56.56
2024-03-15T02:23:46.867Z,56.72
2024-03-15T02:24:46.968Z,57.04
2024-03-15T02:25:46.838Z,56.88
2024-03-15T02:26:46.886Z,57.04
2024-03-15T02:27:46.866Z,56.56
2024-03-15T02:28:46.820Z,56.72
2024-03-15T02:29:46.809Z,56.88
2024-03-15T02:30:47.482Z,57.36
2024-03-15T02:31:46.838Z,58.97
2024-03-15T02:32:46.978Z,57.52
2024-03-15T02:33:46.863Z,57.20
2024-03-15T02:34:46.776Z,57.20
2024-03-15T02:35:46.792Z,57.20
2024-03-15T02:36:46.806Z,57.36
2024-03-15T02:37:46.792Z,57.36
2024-03-15T02:38:46.774Z,57.36
2024-03-15T02:39:46.867Z,58.01
2024-03-15T02:40:46.753Z,57.85
2024-03-15T02:41:46.756Z,57.69
2024-03-15T02:42:46.763Z,57.36
2024-03-15T02:43:46.715Z,57.52
2024-03-15T02:44:46.713Z,57.69
2024-03-15T02:45:46.741Z,56.40
2024-03-15T02:46:46.748Z,57.04
2024-03-15T02:47:46.728Z,58.49
2024-03-15T02:48:46.725Z,57.36
2024-03-15T02:49:46.694Z,57.04
2024-03-15T02:50:46.697Z,57.52
2024-03-15T02:51:46.739Z,57.85
2024-03-15T02:52:46.695Z,57.04
2024-03-15T02:53:46.661Z,57.52
2024-03-15T02:54:46.656Z,58.33
2024-03-15T02:55:46.642Z,57.04
2024-03-15T02:56:46.685Z,57.85
2024-03-15T02:57:46.764Z,57.36
2024-03-15T02:58:46.643Z,57.36
2024-03-15T02:59:46.644Z,57.20
2024-03-15T03:00:46.657Z,57.85
2024-03-15T03:01:46.717Z,57.36
2024-03-15T03:02:46.616Z,57.36
2024-03-15T03:03:46.671Z,57.52
2024-03-15T03:04:46.594Z,57.36
2024-03-15T03:05:46.592Z,57.20
2024-03-15T03:06:46.884Z,57.36
2024-03-15T03:07:46.603Z,57.36
2024-03-15T03:08:46.578Z,57.69
2024-03-15T03:09:46.684Z,57.20
2024-03-15T03:10:46.551Z,57.36
2024-03-15T03:11:46.550Z,60.91
2024-03-15T03:12:46.796Z,57.85
2024-03-15T03:13:46.605Z,58.01
2024-03-15T03:14:46.541Z,57.20
2024-03-15T03:15:46.574Z,57.20
2024-03-15T03:16:46.568Z,57.85
2024-03-15T03:17:46.943Z,57.36
2024-03-15T03:18:46.555Z,57.20
2024-03-15T03:19:46.495Z,56.72
2024-03-15T03:20:46.487Z,57.52
2024-03-15T03:21:46.569Z,57.36
2024-03-15T03:22:46.560Z,58.01
2024-03-15T03:23:46.489Z,57.20
2024-03-15T03:24:46.576Z,57.36
2024-03-15T03:25:46.477Z,57.20
2024-03-15T03:26:46.481Z,57.69
2024-03-15T03:27:46.618Z,57.36
2024-03-15T03:28:46.450Z,57.20
2024-03-15T03:29:46.446Z,58.01
2024-03-15T03:30:46.562Z,58.49
2024-03-15T03:31:46.450Z,58.01
2024-03-15T03:32:46.474Z,58.33
2024-03-15T03:33:46.438Z,58.01
2024-03-15T03:34:46.429Z,57.52
2024-03-15T03:35:46.429Z,57.20
2024-03-15T03:36:46.674Z,60.26
2024-03-15T03:37:46.409Z,57.69
2024-03-15T03:38:46.389Z,57.69
2024-03-15T03:39:46.448Z,57.85
2024-03-15T03:40:47.384Z,57.69
2024-03-15T03:41:46.372Z,64.13
2024-03-15T03:42:46.576Z,57.20
2024-03-15T03:43:46.418Z,57.52
2024-03-15T03:44:46.361Z,58.17
2024-03-15T03:45:46.381Z,59.14
2024-03-15T03:46:46.349Z,58.81
2024-03-15T03:47:46.397Z,58.49
2024-03-15T03:48:46.348Z,62.20
2024-03-15T03:49:46.328Z,58.97
2024-03-15T03:50:46.343Z,58.97
2024-03-15T03:51:46.505Z,59.30
2024-03-15T03:52:46.415Z,58.97
2024-03-15T03:53:46.298Z,59.94
2024-03-15T03:54:46.392Z,59.30
2024-03-15T03:55:46.295Z,59.46
2024-03-15T03:56:46.290Z,60.75
2024-03-15T03:57:46.544Z,63.65
2024-03-15T03:58:46.284Z,59.62
2024-03-15T03:59:46.288Z,58.81
2024-03-15T04:00:46.325Z,60.10
2024-03-15T04:01:46.303Z,61.07
2024-03-15T04:02:46.773Z,58.97
2024-03-15T04:03:46.387Z,58.65
2024-03-15T04:04:46.254Z,59.14
2024-03-15T04:05:46.240Z,59.30
2024-03-15T04:06:46.233Z,60.26
2024-03-15T04:07:46.444Z,60.26
2024-03-15T04:08:46.251Z,63.16
2024-03-15T04:09:46.322Z,59.14
2024-03-15T04:10:46.232Z,60.42
2024-03-15T04:11:46.236Z,59.94
2024-03-15T04:12:46.309Z,60.26
2024-03-15T04:13:46.206Z,60.10
2024-03-15T04:14:51.171Z,64.45
2024-03-15T04:15:48.204Z,60.59
2024-03-15T04:16:46.273Z,65.10
2024-03-15T04:17:46.238Z,62.68
2024-03-15T04:18:46.180Z,59.94
2024-03-15T04:19:47.009Z,61.07
2024-03-15T04:20:46.128Z,61.23
2024-03-15T04:21:46.231Z,60.75
2024-03-15T04:22:46.151Z,63.33
2024-03-15T04:23:46.094Z,63.00
2024-03-15T04:24:46.165Z,62.04
2024-03-15T04:25:46.108Z,61.07
2024-03-15T04:26:46.087Z,64.45
2024-03-15T04:27:46.107Z,60.42
2024-03-15T04:28:46.093Z,60.75
2024-03-15T04:29:46.098Z,62.68
2024-03-15T04:30:46.158Z,61.07
2024-03-15T04:31:46.085Z,60.59
2024-03-15T04:32:46.092Z,60.26
2024-03-15T04:33:46.080Z,61.23
2024-03-15T04:34:46.057Z,62.84
2024-03-15T04:35:46.057Z,64.29
2024-03-15T04:36:46.216Z,62.20
2024-03-15T04:37:46.053Z,65.42
2024-03-15T04:38:46.048Z,60.59
2024-03-15T04:39:46.064Z,61.55
2024-03-15T04:40:46.044Z,64.45
2024-03-15T04:41:46.958Z,65.90
2024-03-15T04:42:46.308Z,64.61
2024-03-15T04:43:45.982Z,61.71
2024-03-15T04:44:45.978Z,64.13
2024-03-15T04:45:46.020Z,63.16
2024-03-15T04:46:46.001Z,66.87
2024-03-15T04:47:46.115Z,64.94
2024-03-15T04:48:46.008Z,66.39
2024-03-15T04:49:45.933Z,63.49
2024-03-15T04:50:45.949Z,65.10
2024-03-15T04:51:45.976Z,61.39
2024-03-15T04:52:45.926Z,61.55
2024-03-15T04:53:45.937Z,65.58
2024-03-15T04:54:45.954Z,62.04
2024-03-15T04:55:45.897Z,61.39
2024-03-15T04:56:45.916Z,64.13
2024-03-15T04:57:46.007Z,62.68
2024-03-15T04:58:45.925Z,60.26
2024-03-15T04:59:45.870Z,65.58
2024-03-15T05:00:45.898Z,59.78
2024-03-15T05:01:45.928Z,61.07
2024-03-15T05:02:45.912Z,62.20
2024-03-15T05:03:45.924Z,62.20
2024-03-15T05:04:45.850Z,61.55
2024-03-15T05:05:45.853Z,60.59
2024-03-15T05:06:45.859Z,61.71
2024-03-15T05:07:45.889Z,64.45
2024-03-15T05:08:51.395Z,63.81
2024-03-15T05:09:47.896Z,66.06
2024-03-15T05:10:45.857Z,64.78
2024-03-15T05:11:45.787Z,67.35
2024-03-15T05:12:46.226Z,67.35
2024-03-15T05:13:45.790Z,63.65
2024-03-15T05:14:45.830Z,62.68
2024-03-15T05:15:45.876Z,68.48
2024-03-15T05:16:45.849Z,64.13
2024-03-15T05:17:45.845Z,68.00
2024-03-15T05:18:45.791Z,65.42
2024-03-15T05:19:45.761Z,62.84
2024-03-15T05:20:45.776Z,61.07
2024-03-15T05:21:45.911Z,66.87
2024-03-15T05:22:46.461Z,61.23
2024-03-15T05:23:45.768Z,64.61
2024-03-15T05:24:45.778Z,65.90
2024-03-15T05:25:47.374Z,65.90
2024-03-15T05:26:45.712Z,63.00
2024-03-15T05:27:45.791Z,61.07
2024-03-15T05:28:45.718Z,67.68
2024-03-15T05:29:45.726Z,65.10
2024-03-15T05:30:45.779Z,65.10
2024-03-15T05:31:45.691Z,61.71
2024-03-15T05:32:45.736Z,64.61
2024-03-15T05:33:45.756Z,63.97
2024-03-15T05:34:45.695Z,68.96
2024-03-15T05:35:45.739Z,68.96
2024-03-15T05:36:45.920Z,66.71
2024-03-15T05:37:45.639Z,68.48
2024-03-15T05:38:45.652Z,68.48
2024-03-15T05:39:45.785Z,66.55
2024-03-15T05:40:45.639Z,66.55
2024-03-15T05:41:45.660Z,67.68
2024-03-15T05:42:45.780Z,71.54
2024-03-15T05:43:45.672Z,65.10
2024-03-15T05:44:45.610Z,71.70
2024-03-15T05:45:45.724Z,64.29
2024-03-15T05:46:45.605Z,66.55
2024-03-15T05:47:45.790Z,67.68
2024-03-15T05:48:45.629Z,66.06
2024-03-15T05:49:45.583Z,67.03
2024-03-15T05:50:45.643Z,66.55
2024-03-15T05:51:45.775Z,68.80
2024-03-15T05:52:46.478Z,64.78
2024-03-15T05:53:48.545Z,67.51
2024-03-15T05:54:46.854Z,68.16
2024-03-15T05:55:45.566Z,66.06
2024-03-15T05:56:45.842Z,70.42
2024-03-15T05:57:45.556Z,65.26
2024-03-15T05:58:47.403Z,69.93
2024-03-15T05:59:46.617Z,65.74
2024-03-15T06:00:45.603Z,64.61
2024-03-15T06:01:45.567Z,63.81
2024-03-15T06:02:45.873Z,69.77
2024-03-15T06:03:45.607Z,67.35
2024-03-15T06:04:45.470Z,64.45
2024-03-15T06:05:45.476Z,61.87
2024-03-15T06:06:45.582Z,61.55
2024-03-15T06:07:45.499Z,61.71
2024-03-15T06:08:45.473Z,69.61
2024-03-15T06:09:46.524Z,68.00
2024-03-15T06:10:45.429Z,66.71
2024-03-15T06:11:45.479Z,68.16
2024-03-15T06:12:45.494Z,64.13
2024-03-15T06:13:45.417Z,65.10
2024-03-15T06:14:45.456Z,64.61
2024-03-15T06:15:45.468Z,63.00
2024-03-15T06:16:45.385Z,70.58
2024-03-15T06:17:45.452Z,68.32
2024-03-15T06:18:45.437Z,64.45
2024-03-15T06:19:45.381Z,65.90
2024-03-15T06:20:45.407Z,64.29
2024-03-15T06:21:45.416Z,63.97
2024-03-15T06:22:45.381Z,68.96
2024-03-15T06:23:45.405Z,66.87
2024-03-15T06:24:45.411Z,71.70
2024-03-15T06:25:45.408Z,65.58
2024-03-15T06:26:45.341Z,65.74
2024-03-15T06:27:45.394Z,64.29
2024-03-15T06:28:45.325Z,69.77
2024-03-15T06:29:45.331Z,68.64
2024-03-15T06:30:45.377Z,66.87
2024-03-15T06:31:45.302Z,68.00
2024-03-15T06:32:45.368Z,66.39
2024-03-15T06:33:45.328Z,67.68
2024-03-15T06:34:45.295Z,61.55
2024-03-15T06:35:45.305Z,60.91
2024-03-15T06:36:45.339Z,70.09
2024-03-15T06:37:45.320Z,67.84
2024-03-15T06:38:45.256Z,70.42
2024-03-15T06:39:45.283Z,67.84
2024-03-15T06:40:45.326Z,68.32
2024-03-15T06:41:45.249Z,66.39
2024-03-15T06:42:45.316Z,65.74
2024-03-15T06:43:45.273Z,65.10
2024-03-15T06:44:45.250Z,66.06
2024-03-15T06:45:45.315Z,71.38
2024-03-15T06:46:45.205Z,67.68
2024-03-15T06:47:45.297Z,66.87
2024-03-15T06:48:45.328Z,62.84
2024-03-15T06:49:45.608Z,62.04
2024-03-15T06:50:45.227Z,70.58
2024-03-15T06:51:45.228Z,68.32
2024-03-15T06:52:45.204Z,68.00
2024-03-15T06:53:45.237Z,66.23
2024-03-15T06:54:45.232Z,66.06
2024-03-15T06:55:45.154Z,69.61
2024-03-15T06:56:45.178Z,69.45
2024-03-15T06:57:45.229Z,65.42
2024-03-15T06:58:45.145Z,66.71
2024-03-15T06:59:45.325Z,62.36
2024-03-15T07:00:45.214Z,59.94
2024-03-15T07:01:45.159Z,67.84
2024-03-15T07:02:45.605Z,67.84
2024-03-15T07:03:45.184Z,68.16
2024-03-15T07:04:45.139Z,64.13
2024-03-15T07:05:45.109Z,63.81
2024-03-15T07:06:45.157Z,61.55
2024-03-15T07:07:45.127Z,59.30
2024-03-15T07:08:47.265Z,65.74
2024-03-15T07:09:45.180Z,61.87
2024-03-15T07:10:45.205Z,68.48
2024-03-15T07:11:45.155Z,63.97
2024-03-15T07:12:45.154Z,67.68
2024-03-15T07:13:45.070Z,61.07
2024-03-15T07:14:48.588Z,67.84
2024-03-15T07:15:47.119Z,67.35
2024-03-15T07:16:45.084Z,69.29
2024-03-15T07:17:45.102Z,68.80
2024-03-15T07:18:45.228Z,64.45
2024-03-15T07:19:45.190Z,61.55
2024-03-15T07:20:45.038Z,68.96
2024-03-15T07:21:45.068Z,58.01
2024-03-15T07:22:45.096Z,63.49
2024-03-15T07:23:45.036Z,64.61
2024-03-15T07:24:45.030Z,66.87
2024-03-15T07:25:45.008Z,65.58
2024-03-15T07:26:45.033Z,57.36
2024-03-15T07:27:45.086Z,70.74
2024-03-15T07:28:44.964Z,67.51
2024-03-15T07:29:44.988Z,64.13
2024-03-15T07:30:44.979Z,65.74
2024-03-15T07:31:44.963Z,69.45
2024-03-15T07:32:45.983Z,61.39
2024-03-15T07:33:45.029Z,64.61
2024-03-15T07:34:45.035Z,66.06
2024-03-15T07:35:44.966Z,64.78
2024-03-15T07:36:44.944Z,68.96
2024-03-15T07:37:44.951Z,64.13
2024-03-15T07:38:44.970Z,70.25
2024-03-15T07:39:46.005Z,67.51
2024-03-15T07:40:44.936Z,65.42
2024-03-15T07:41:44.908Z,68.32
2024-03-15T07:42:44.954Z,62.84
2024-03-15T07:43:44.854Z,65.10
2024-03-15T07:44:44.890Z,70.42
2024-03-15T07:45:44.981Z,63.81
2024-03-15T07:46:44.860Z,61.07
2024-03-15T07:47:44.949Z,62.04
2024-03-15T07:48:44.880Z,60.10
2024-03-15T07:49:44.878Z,64.61
2024-03-15T07:50:44.837Z,65.90
2024-03-15T07:51:44.862Z,59.62
2024-03-15T07:52:44.808Z,63.16
2024-03-15T07:53:44.831Z,66.23
2024-03-15T07:54:45.414Z,59.94
2024-03-15T07:55:44.823Z,58.33
2024-03-15T07:56:44.882Z,60.10
2024-03-15T07:57:46.779Z,65.42
2024-03-15T07:58:44.839Z,57.85
2024-03-15T07:59:44.762Z,62.84
2024-03-15T08:00:44.799Z,66.87
2024-03-15T08:01:44.794Z,63.00
2024-03-15T08:02:44.742Z,64.61
2024-03-15T08:03:44.829Z,61.71
2024-03-15T08:04:44.769Z,65.90
2024-03-15T08:05:44.770Z,69.29
2024-03-15T08:06:44.849Z,66.23
2024-03-15T08:07:44.787Z,57.52
2024-03-15T08:08:44.723Z,69.45
2024-03-15T08:09:44.772Z,69.93
2024-03-15T08:10:44.844Z,58.01
2024-03-15T08:11:44.915Z,63.81
2024-03-15T08:12:44.738Z,66.87
2024-03-15T08:13:44.731Z,58.01
2024-03-15T08:14:44.753Z,67.19
2024-03-15T08:15:44.768Z,57.04
2024-03-15T08:16:44.867Z,58.97
2024-03-15T08:17:44.884Z,68.80
2024-03-15T08:18:44.833Z,65.58
2024-03-15T08:19:44.695Z,68.80
2024-03-15T08:20:44.654Z,58.33
2024-03-15T08:21:44.678Z,70.58
2024-03-15T08:22:44.637Z,60.59
2024-03-15T08:23:44.629Z,62.36
2024-03-15T08:24:44.665Z,61.39
2024-03-15T08:25:44.628Z,63.33
2024-03-15T08:26:44.611Z,68.96
2024-03-15T08:27:45.859Z,67.19
2024-03-15T08:28:44.590Z,61.87
2024-03-15T08:29:44.758Z,60.42
2024-03-15T08:30:44.665Z,66.39
2024-03-15T08:31:44.598Z,60.26
2024-03-15T08:32:44.596Z,56.56
2024-03-15T08:33:45.636Z,57.52
2024-03-15T08:34:44.604Z,66.39
2024-03-15T08:35:44.581Z,66.23
2024-03-15T08:36:44.594Z,64.13
2024-03-15T08:37:44.543Z,69.93
2024-03-15T08:38:44.519Z,64.94
2024-03-15T08:39:44.639Z,69.61
2024-03-15T08:40:44.516Z,68.16
2024-03-15T08:41:44.929Z,64.78
2024-03-15T08:42:44.598Z,63.65
2024-03-15T08:43:44.508Z,66.87
2024-03-15T08:44:44.537Z,68.16
2024-03-15T08:45:44.552Z,67.84
2024-03-15T08:46:44.454Z,64.61
2024-03-15T08:47:54.723Z,59.46
2024-03-15T08:48:46.549Z,55.43
2024-03-15T08:49:44.501Z,56.24
2024-03-15T08:50:45.332Z,67.35
2024-03-15T08:51:44.492Z,65.90
2024-03-15T08:52:44.444Z,66.87
2024-03-15T08:53:44.428Z,58.49
2024-03-15T08:54:44.468Z,68.80
2024-03-15T08:55:44.416Z,68.00
2024-03-15T08:56:44.416Z,66.06
2024-03-15T08:57:44.529Z,67.03
2024-03-15T08:58:44.402Z,69.45
2024-03-15T08:59:44.403Z,62.20
2024-03-15T09:00:44.486Z,68.96
2024-03-15T09:01:44.393Z,63.33
2024-03-15T09:02:44.473Z,68.00
2024-03-15T09:03:47.862Z,67.84
2024-03-15T09:04:44.367Z,66.71
2024-03-15T09:05:44.434Z,62.04
2024-03-15T09:06:44.363Z,58.97
2024-03-15T09:07:44.349Z,67.19
2024-03-15T09:08:44.442Z,68.48
2024-03-15T09:09:44.478Z,59.46
2024-03-15T09:10:44.365Z,67.35
2024-03-15T09:11:44.487Z,66.39
2024-03-15T09:12:44.489Z,63.97
2024-03-15T09:13:48.921Z,65.58
2024-03-15T09:14:46.332Z,66.87
2024-03-15T09:15:44.395Z,67.19
2024-03-15T09:16:44.290Z,70.25
2024-03-15T09:17:44.374Z,67.35
2024-03-15T09:18:44.295Z,68.80
2024-03-15T09:19:44.281Z,68.32
2024-03-15T09:20:44.472Z,59.46
2024-03-15T09:21:44.271Z,63.16
2024-03-15T09:22:44.301Z,68.16
2024-03-15T09:23:44.278Z,67.68
2024-03-15T09:24:44.247Z,69.29
2024-03-15T09:25:44.392Z,61.87
2024-03-15T09:26:44.223Z,58.01
2024-03-15T09:27:44.383Z,65.42
2024-03-15T09:28:44.208Z,66.06
2024-03-15T09:29:44.250Z,69.29
2024-03-15T09:30:51.302Z,69.93
2024-03-15T09:32:00.454Z,62.52
2024-03-15T09:32:45.339Z,60.26
2024-03-15T09:33:44.311Z,66.87
2024-03-15T09:34:44.225Z,64.61
2024-03-15T09:35:44.170Z,66.55
2024-03-15T09:36:44.195Z,60.91
2024-03-15T09:37:44.914Z,68.64
2024-03-15T09:38:44.219Z,58.49
2024-03-15T09:39:44.260Z,64.61
2024-03-15T09:40:44.180Z,69.93
2024-03-15T09:41:44.189Z,68.80
2024-03-15T09:42:44.251Z,63.00
2024-03-15T09:43:44.126Z,65.42
2024-03-15T09:44:44.144Z,62.52
2024-03-15T09:45:44.171Z,68.80
2024-03-15T09:46:44.097Z,64.61
2024-03-15T09:47:44.149Z,72.03
2024-03-15T09:48:44.134Z,68.96
2024-03-15T09:49:44.163Z,66.06
2024-03-15T09:50:44.103Z,68.80
2024-03-15T09:51:44.105Z,67.35
2024-03-15T09:52:44.054Z,67.51
2024-03-15T09:53:44.054Z,66.39
2024-03-15T09:54:44.224Z,66.55
2024-03-15T09:55:44.113Z,66.55
2024-03-15T09:56:44.140Z,60.59
2024-03-15T09:57:44.184Z,60.59
2024-03-15T09:58:44.045Z,65.10
2024-03-15T09:59:44.015Z,67.35
2024-03-15T10:00:44.091Z,61.87
2024-03-15T10:01:44.156Z,65.10
2024-03-15T10:02:44.024Z,60.26
2024-03-15T10:03:44.075Z,68.16
2024-03-15T10:04:43.996Z,59.46
2024-03-15T10:05:43.980Z,68.00
2024-03-15T10:06:43.980Z,63.33
2024-03-15T10:07:44.048Z,67.84
2024-03-15T10:08:43.983Z,68.48
2024-03-15T10:09:44.004Z,66.39
2024-03-15T10:10:43.963Z,63.97
2024-03-15T10:11:43.979Z,63.65
2024-03-15T10:12:43.986Z,64.13
2024-03-15T10:13:44.210Z,68.80
2024-03-15T10:14:44.017Z,59.14
2024-03-15T10:15:44.019Z,68.48
2024-03-15T10:16:43.925Z,70.25
2024-03-15T10:17:44.050Z,69.93
2024-03-15T10:18:43.998Z,67.84
2024-03-15T10:19:43.987Z,67.19
2024-03-15T10:20:43.966Z,68.96
2024-03-15T10:21:43.967Z,67.84
2024-03-15T10:22:43.897Z,61.07
2024-03-15T10:23:43.861Z,66.55
2024-03-15T10:24:43.916Z,65.58
2024-03-15T10:25:43.914Z,59.14
2024-03-15T10:26:43.885Z,65.26
2024-03-15T10:27:43.950Z,67.35
2024-03-15T10:28:43.857Z,66.87
2024-03-15T10:29:43.858Z,64.94
2024-03-15T10:30:43.920Z,67.19
2024-03-15T10:31:43.813Z,67.35
2024-03-15T10:32:43.858Z,67.68
2024-03-15T10:33:43.971Z,58.33
2024-03-15T10:34:43.836Z,68.48
2024-03-15T10:35:43.817Z,63.81
2024-03-15T10:36:43.842Z,64.61
2024-03-15T10:37:43.792Z,68.64
2024-03-15T10:38:43.798Z,70.25
2024-03-15T10:39:43.862Z,68.80
2024-03-15T10:40:43.758Z,68.64
2024-03-15T10:41:43.954Z,68.48
2024-03-15T10:42:43.819Z,70.74
2024-03-15T10:43:43.804Z,65.26
2024-03-15T10:44:43.737Z,68.64
2024-03-15T10:45:43.741Z,63.65
2024-03-15T10:46:44.048Z,65.26
2024-03-15T10:47:43.883Z,70.74
2024-03-15T10:48:43.869Z,66.23
2024-03-15T10:49:43.791Z,66.71
2024-03-15T10:50:43.717Z,61.87
2024-03-15T10:51:43.765Z,68.00
2024-03-15T10:52:43.705Z,66.06
2024-03-15T10:53:43.738Z,60.42
2024-03-15T10:54:43.732Z,60.91
2024-03-15T10:55:43.696Z,65.90
2024-03-15T10:56:43.700Z,70.58
2024-03-15T10:57:43.770Z,63.16
2024-03-15T10:58:43.670Z,63.49
2024-03-15T10:59:43.658Z,66.06
2024-03-15T11:00:43.785Z,62.68
2024-03-15T11:01:43.830Z,64.61
2024-03-15T11:02:43.643Z,67.19
2024-03-15T11:03:43.711Z,67.51
2024-03-15T11:04:43.635Z,69.77
2024-03-15T11:05:43.622Z,68.80
2024-03-15T11:06:43.698Z,68.00
2024-03-15T11:07:43.601Z,67.35
2024-03-15T11:08:43.653Z,61.23
2024-03-15T11:09:43.622Z,64.45
2024-03-15T11:10:43.646Z,64.13
2024-03-15T11:11:43.648Z,69.13
2024-03-15T11:12:43.599Z,63.16
2024-03-15T11:13:43.562Z,60.26
2024-03-15T11:14:43.574Z,68.00
2024-03-15T11:15:43.757Z,68.80
2024-03-15T11:16:43.573Z,61.71
2024-03-15T11:17:43.572Z,68.48
2024-03-15T11:18:43.603Z,64.94
2024-03-15T11:19:43.636Z,70.09
2024-03-15T11:20:43.589Z,65.10
2024-03-15T11:21:43.600Z,64.29
2024-03-15T11:22:43.536Z,64.94
2024-03-15T11:23:43.549Z,67.19
2024-03-15T11:24:43.555Z,69.93
2024-03-15T11:25:43.542Z,70.74
2024-03-15T11:26:43.559Z,68.96
2024-03-15T11:27:43.536Z,62.20
2024-03-15T11:28:43.658Z,63.81
2024-03-15T11:29:43.493Z,68.96
2024-03-15T11:30:43.581Z,72.03
2024-03-15T11:31:43.496Z,64.45
2024-03-15T11:32:43.596Z,63.81
2024-03-15T11:33:43.654Z,60.59
2024-03-15T11:34:43.550Z,62.04
2024-03-15T11:35:43.452Z,68.00
2024-03-15T11:36:43.560Z,66.71
2024-03-15T11:37:43.464Z,68.48
2024-03-15T11:38:43.476Z,59.46
2024-03-15T11:39:43.481Z,72.19
2024-03-15T11:40:43.434Z,67.68
2024-03-15T11:41:43.393Z,66.71
2024-03-15T11:42:43.440Z,65.90
2024-03-15T11:43:43.502Z,60.91
2024-03-15T11:44:43.401Z,57.04
2024-03-15T11:45:43.711Z,61.71
2024-03-15T11:46:43.374Z,64.45
2024-03-15T11:47:43.405Z,58.65
2024-03-15T11:48:43.427Z,65.90
2024-03-15T11:49:43.456Z,57.20
2024-03-15T11:50:43.357Z,68.32
2024-03-15T11:51:43.475Z,66.87
2024-03-15T11:52:43.368Z,65.42
2024-03-15T11:53:43.386Z,68.48
2024-03-15T11:54:43.411Z,68.48
2024-03-15T11:55:43.347Z,70.74
2024-03-15T11:56:43.320Z,70.25
2024-03-15T11:57:43.396Z,66.39
2024-03-15T11:58:43.424Z,64.45
2024-03-15T11:59:43.311Z,64.13
2024-03-15T12:00:43.417Z,67.35
2024-03-15T12:01:43.510Z,64.13
2024-03-15T12:02:43.293Z,67.68
2024-03-15T12:03:43.332Z,58.97
2024-03-15T12:04:43.278Z,59.62
2024-03-15T12:05:44.017Z,71.06
2024-03-15T12:06:43.273Z,66.39
2024-03-15T12:07:43.254Z,66.06
2024-03-15T12:08:43.259Z,67.51
2024-03-15T12:09:43.340Z,63.81
2024-03-15T12:10:43.375Z,70.25
2024-03-15T12:11:43.346Z,69.77
2024-03-15T12:12:43.324Z,63.97
2024-03-15T12:13:44.274Z,65.90
2024-03-15T12:14:43.239Z,70.74
2024-03-15T12:15:43.276Z,70.74
2024-03-15T12:16:43.209Z,65.90
2024-03-15T12:17:43.210Z,69.45
2024-03-15T12:18:44.241Z,61.71
2024-03-15T12:19:43.187Z,68.48
2024-03-15T12:20:43.192Z,62.68
2024-03-15T12:21:43.279Z,69.61
2024-03-15T12:22:43.159Z,71.54
2024-03-15T12:23:43.294Z,61.23
2024-03-15T12:24:43.348Z,68.16
2024-03-15T12:25:43.128Z,64.61
2024-03-15T12:26:43.259Z,72.03
2024-03-15T12:27:43.155Z,68.48
2024-03-15T12:28:44.193Z,71.22
2024-03-15T12:29:43.122Z,58.97
2024-03-15T12:30:43.301Z,72.19
2024-03-15T12:31:43.111Z,68.64
2024-03-15T12:33:15.397Z,71.06
2024-03-15T12:33:45.571Z,68.48
2024-03-15T12:34:43.140Z,64.78
2024-03-15T12:35:43.136Z,68.96
2024-03-15T12:36:43.115Z,67.19
2024-03-15T12:37:43.213Z,72.03
2024-03-15T12:38:43.057Z,71.87
2024-03-15T12:39:43.124Z,70.42
2024-03-15T12:40:43.066Z,72.03
2024-03-15T12:41:43.058Z,70.58
2024-03-15T12:42:43.087Z,71.22
2024-03-15T12:43:43.244Z,69.93
2024-03-15T12:44:43.153Z,73.15
2024-03-15T12:45:43.878Z,70.09
2024-03-15T12:46:43.023Z,67.84
2024-03-15T12:47:43.029Z,66.87
2024-03-15T12:48:43.106Z,70.58
2024-03-15T12:49:42.992Z,69.45
2024-03-15T12:50:43.046Z,72.67
2024-03-15T12:51:43.032Z,70.42
2024-03-15T12:52:43.047Z,70.42